sensor_id;sensor_type;location;lat;lon;timestamp;P1;durP1;ratioP1;P2;durP2;ratioP2
3267;SDS011;1646;52.450;13.326;2023-08-06T00:00:57;9.23;;;8.40;;
3267;SDS011;1646;52.450;13.326;2023-08-06T00:05:58;8.60;;;7.73;;
3267;SDS011;1646;52.450;13.326;2023-08-06T00:10:56;8.77;;;7.47;;
3267;SDS011;1646;52.450;13.326;2023-08-06T00:15:54;10.47;;;8.43;;
3267;SDS011;1646;52.450;13.326;2023-08-06T00:20:52;9.97;;;8.90;;
3267;SDS011;1646;52.450;13.326;2023-08-06T00:25:52;9.70;;;8.67;;
3267;SDS011;1646;52.450;13.326;2023-08-06T00:30:52;8.97;;;8.07;;
3267;SDS011;1646;52.450;13.326;2023-08-06T00:35:51;8.70;;;7.80;;
3267;SDS011;1646;52.450;13.326;2023-08-06T00:40:49;16.10;;;9.07;;
3267;SDS011;1646;52.450;13.326;2023-08-06T00:45:49;9.53;;;8.60;;
3267;SDS011;1646;52.450;13.326;2023-08-06T00:50:47;10.17;;;8.53;;
3267;SDS011;1646;52.450;13.326;2023-08-06T00:55:45;8.77;;;7.77;;
3267;SDS011;1646;52.450;13.326;2023-08-06T01:00:45;12.00;;;9.37;;
3267;SDS011;1646;52.450;13.326;2023-08-06T01:05:45;8.87;;;7.70;;
3267;SDS011;1646;52.450;13.326;2023-08-06T01:10:46;12.10;;;8.10;;
3267;SDS011;1646;52.450;13.326;2023-08-06T01:15:54;9.93;;;8.03;;
3267;SDS011;1646;52.450;13.326;2023-08-06T01:20:55;8.07;;;7.27;;
3267;SDS011;1646;52.450;13.326;2023-08-06T01:25:56;9.60;;;6.70;;
3267;SDS011;1646;52.450;13.326;2023-08-06T01:31:01;8.27;;;7.57;;
3267;SDS011;1646;52.450;13.326;2023-08-06T01:36:02;11.80;;;7.87;;
3267;SDS011;1646;52.450;13.326;2023-08-06T01:41:03;9.93;;;7.80;;
3267;SDS011;1646;52.450;13.326;2023-08-06T01:46:01;9.40;;;7.23;;
3267;SDS011;1646;52.450;13.326;2023-08-06T01:51:00;8.17;;;7.37;;
3267;SDS011;1646;52.450;13.326;2023-08-06T01:55:59;10.33;;;8.10;;
3267;SDS011;1646;52.450;13.326;2023-08-06T02:00:58;9.43;;;8.50;;
3267;SDS011;1646;52.450;13.326;2023-08-06T02:05:56;9.50;;;8.50;;
3267;SDS011;1646;52.450;13.326;2023-08-06T02:10:55;11.73;;;9.70;;
3267;SDS011;1646;52.450;13.326;2023-08-06T02:15:55;12.37;;;9.80;;
3267;SDS011;1646;52.450;13.326;2023-08-06T02:20:57;11.90;;;9.93;;
3267;SDS011;1646;52.450;13.326;2023-08-06T02:25:58;12.33;;;10.87;;
3267;SDS011;1646;52.450;13.326;2023-08-06T02:30:58;11.03;;;10.03;;
3267;SDS011;1646;52.450;13.326;2023-08-06T02:36:00;11.90;;;10.10;;
3267;SDS011;1646;52.450;13.326;2023-08-06T02:41:01;11.43;;;10.23;;
3267;SDS011;1646;52.450;13.326;2023-08-06T02:46:02;12.63;;;9.67;;
3267;SDS011;1646;52.450;13.326;2023-08-06T02:51:00;14.00;;;11.20;;
3267;SDS011;1646;52.450;13.326;2023-08-06T02:56:01;12.73;;;10.13;;
3267;SDS011;1646;52.450;13.326;2023-08-06T03:01:11;10.53;;;9.43;;
3267;SDS011;1646;52.450;13.326;2023-08-06T03:06:17;10.27;;;9.27;;
3267;SDS011;1646;52.450;13.326;2023-08-06T03:11:19;12.97;;;8.67;;
3267;SDS011;1646;52.450;13.326;2023-08-06T03:16:23;9.67;;;8.67;;
3267;SDS011;1646;52.450;13.326;2023-08-06T03:21:22;9.00;;;8.10;;
3267;SDS011;1646;52.450;13.326;2023-08-06T03:26:21;8.30;;;7.40;;
3267;SDS011;1646;52.450;13.326;2023-08-06T03:31:19;9.40;;;7.83;;
3267;SDS011;1646;52.450;13.326;2023-08-06T03:36:19;7.90;;;7.10;;
3267;SDS011;1646;52.450;13.326;2023-08-06T03:41:19;8.33;;;7.40;;
3267;SDS011;1646;52.450;13.326;2023-08-06T03:46:17;6.97;;;6.37;;
3267;SDS011;1646;52.450;13.326;2023-08-06T03:51:16;7.23;;;6.53;;
3267;SDS011;1646;52.450;13.326;2023-08-06T03:56:17;7.67;;;6.97;;
3267;SDS011;1646;52.450;13.326;2023-08-06T04:01:15;7.83;;;6.97;;
3267;SDS011;1646;52.450;13.326;2023-08-06T04:06:16;8.27;;;7.47;;
3267;SDS011;1646;52.450;13.326;2023-08-06T04:11:14;9.63;;;7.67;;
3267;SDS011;1646;52.450;13.326;2023-08-06T04:16:14;8.07;;;7.20;;
3267;SDS011;1646;52.450;13.326;2023-08-06T04:21:12;8.77;;;7.43;;
3267;SDS011;1646;52.450;13.326;2023-08-06T04:26:10;8.53;;;7.73;;
3267;SDS011;1646;52.450;13.326;2023-08-06T04:31:09;8.23;;;7.40;;
3267;SDS011;1646;52.450;13.326;2023-08-06T04:36:12;7.40;;;6.40;;
3267;SDS011;1646;52.450;13.326;2023-08-06T04:41:10;7.70;;;6.83;;
3267;SDS011;1646;52.450;13.326;2023-08-06T04:46:08;7.83;;;7.13;;
3267;SDS011;1646;52.450;13.326;2023-08-06T04:51:07;6.90;;;6.30;;
3267;SDS011;1646;52.450;13.326;2023-08-06T04:56:06;7.43;;;6.73;;
3267;SDS011;1646;52.450;13.326;2023-08-06T05:01:05;8.37;;;6.23;;
3267;SDS011;1646;52.450;13.326;2023-08-06T05:06:03;6.53;;;5.93;;
3267;SDS011;1646;52.450;13.326;2023-08-06T05:11:01;9.20;;;6.83;;
3267;SDS011;1646;52.450;13.326;2023-08-06T05:16:01;8.17;;;6.53;;
3267;SDS011;1646;52.450;13.326;2023-08-06T05:21:00;7.60;;;6.90;;
3267;SDS011;1646;52.450;13.326;2023-08-06T05:25:58;6.70;;;6.10;;
3267;SDS011;1646;52.450;13.326;2023-08-06T05:30:56;7.10;;;6.23;;
3267;SDS011;1646;52.450;13.326;2023-08-06T05:35:56;7.70;;;6.90;;
3267;SDS011;1646;52.450;13.326;2023-08-06T05:40:54;7.00;;;6.30;;
3267;SDS011;1646;52.450;13.326;2023-08-06T05:45:52;6.90;;;6.20;;
3267;SDS011;1646;52.450;13.326;2023-08-06T05:50:51;7.40;;;5.80;;
3267;SDS011;1646;52.450;13.326;2023-08-06T05:55:51;8.87;;;6.10;;
3267;SDS011;1646;52.450;13.326;2023-08-06T06:00:49;6.80;;;5.20;;
3267;SDS011;1646;52.450;13.326;2023-08-06T06:05:47;5.07;;;4.70;;
3267;SDS011;1646;52.450;13.326;2023-08-06T06:10:46;5.87;;;5.37;;
3267;SDS011;1646;52.450;13.326;2023-08-06T06:15:45;5.60;;;5.07;;
3267;SDS011;1646;52.450;13.326;2023-08-06T06:20:44;6.23;;;5.63;;
3267;SDS011;1646;52.450;13.326;2023-08-06T06:25:42;7.00;;;5.30;;
3267;SDS011;1646;52.450;13.326;2023-08-06T06:30:41;6.77;;;6.07;;
3267;SDS011;1646;52.450;13.326;2023-08-06T06:35:41;5.57;;;5.17;;
3267;SDS011;1646;52.450;13.326;2023-08-06T06:40:39;5.77;;;5.20;;
3267;SDS011;1646;52.450;13.326;2023-08-06T06:45:38;6.17;;;5.67;;
3267;SDS011;1646;52.450;13.326;2023-08-06T06:50:36;6.20;;;5.33;;
3267;SDS011;1646;52.450;13.326;2023-08-06T06:55:37;5.77;;;5.23;;
3267;SDS011;1646;52.450;13.326;2023-08-06T07:00:35;5.33;;;4.93;;
3267;SDS011;1646;52.450;13.326;2023-08-06T07:05:34;5.67;;;5.17;;
3267;SDS011;1646;52.450;13.326;2023-08-06T07:10:32;6.50;;;5.90;;
3267;SDS011;1646;52.450;13.326;2023-08-06T07:15:32;5.77;;;5.27;;
3267;SDS011;1646;52.450;13.326;2023-08-06T07:20:30;5.27;;;4.77;;
3267;SDS011;1646;52.450;13.326;2023-08-06T07:25:30;4.73;;;4.43;;
3267;SDS011;1646;52.450;13.326;2023-08-06T07:30:28;6.10;;;5.13;;
3267;SDS011;1646;52.450;13.326;2023-08-06T07:35:29;5.10;;;4.70;;
3267;SDS011;1646;52.450;13.326;2023-08-06T07:40:28;5.30;;;4.90;;
3267;SDS011;1646;52.450;13.326;2023-08-06T07:45:26;4.97;;;4.43;;
3267;SDS011;1646;52.450;13.326;2023-08-06T07:50:25;5.50;;;5.07;;
3267;SDS011;1646;52.450;13.326;2023-08-06T07:55:24;5.80;;;5.30;;
3267;SDS011;1646;52.450;13.326;2023-08-06T08:00:23;6.23;;;5.63;;
3267;SDS011;1646;52.450;13.326;2023-08-06T08:05:21;5.60;;;5.20;;
3267;SDS011;1646;52.450;13.326;2023-08-06T08:10:20;5.80;;;5.30;;
3267;SDS011;1646;52.450;13.326;2023-08-06T08:15:20;6.80;;;6.30;;
3267;SDS011;1646;52.450;13.326;2023-08-06T08:20:18;6.27;;;5.70;;
3267;SDS011;1646;52.450;13.326;2023-08-06T08:25:16;5.93;;;5.43;;
3267;SDS011;1646;52.450;13.326;2023-08-06T08:30:15;7.93;;;5.97;;
3267;SDS011;1646;52.450;13.326;2023-08-06T08:35:15;6.23;;;5.73;;
3267;SDS011;1646;52.450;13.326;2023-08-06T08:40:13;7.17;;;6.57;;
3267;SDS011;1646;52.450;13.326;2023-08-06T08:45:13;8.57;;;7.50;;
3267;SDS011;1646;52.450;13.326;2023-08-06T08:50:12;7.80;;;7.10;;
3267;SDS011;1646;52.450;13.326;2023-08-06T08:55:12;12.73;;;7.30;;
3267;SDS011;1646;52.450;13.326;2023-08-06T09:00:12;8.03;;;7.23;;
3267;SDS011;1646;52.450;13.326;2023-08-06T09:05:11;9.20;;;8.13;;
3267;SDS011;1646;52.450;13.326;2023-08-06T09:10:11;8.53;;;7.73;;
3267;SDS011;1646;52.450;13.326;2023-08-06T09:15:12;9.93;;;8.07;;
3267;SDS011;1646;52.450;13.326;2023-08-06T09:20:11;8.33;;;7.53;;
3267;SDS011;1646;52.450;13.326;2023-08-06T09:25:11;8.80;;;8.07;;
3267;SDS011;1646;52.450;13.326;2023-08-06T09:30:28;8.87;;;8.07;;
3267;SDS011;1646;52.450;13.326;2023-08-06T09:35:28;9.40;;;7.70;;
3267;SDS011;1646;52.450;13.326;2023-08-06T09:40:29;8.60;;;7.90;;
3267;SDS011;1646;52.450;13.326;2023-08-06T09:45:30;8.40;;;7.60;;
3267;SDS011;1646;52.450;13.326;2023-08-06T09:50:30;8.17;;;7.47;;
3267;SDS011;1646;52.450;13.326;2023-08-06T09:55:30;7.63;;;7.03;;
3267;SDS011;1646;52.450;13.326;2023-08-06T10:00:30;8.03;;;7.33;;
3267;SDS011;1646;52.450;13.326;2023-08-06T10:05:34;11.13;;;8.67;;
3267;SDS011;1646;52.450;13.326;2023-08-06T10:10:36;9.03;;;8.23;;
3267;SDS011;1646;52.450;13.326;2023-08-06T10:15:34;8.80;;;8.00;;
3267;SDS011;1646;52.450;13.326;2023-08-06T10:20:35;11.67;;;8.40;;
3267;SDS011;1646;52.450;13.326;2023-08-06T10:25:33;9.90;;;8.90;;
3267;SDS011;1646;52.450;13.326;2023-08-06T10:30:34;8.93;;;8.13;;
3267;SDS011;1646;52.450;13.326;2023-08-06T10:35:40;9.00;;;7.60;;
3267;SDS011;1646;52.450;13.326;2023-08-06T10:40:48;8.77;;;7.97;;
3267;SDS011;1646;52.450;13.326;2023-08-06T10:45:50;8.90;;;8.10;;
3267;SDS011;1646;52.450;13.326;2023-08-06T10:50:49;8.40;;;7.60;;
3267;SDS011;1646;52.450;13.326;2023-08-06T10:55:47;8.70;;;7.80;;
3267;SDS011;1646;52.450;13.326;2023-08-06T11:00:47;9.27;;;8.37;;
3267;SDS011;1646;52.450;13.326;2023-08-06T11:05:49;9.50;;;8.70;;
3267;SDS011;1646;52.450;13.326;2023-08-06T11:10:48;10.33;;;9.07;;
3267;SDS011;1646;52.450;13.326;2023-08-06T11:15:59;9.03;;;8.13;;
3267;SDS011;1646;52.450;13.326;2023-08-06T11:20:59;10.00;;;9.00;;
3267;SDS011;1646;52.450;13.326;2023-08-06T11:25:58;10.10;;;9.17;;
3267;SDS011;1646;52.450;13.326;2023-08-06T11:30:56;11.33;;;9.77;;
3267;SDS011;1646;52.450;13.326;2023-08-06T11:35:59;9.67;;;8.77;;
3267;SDS011;1646;52.450;13.326;2023-08-06T11:40:58;10.33;;;9.37;;
3267;SDS011;1646;52.450;13.326;2023-08-06T11:45:57;16.40;;;11.40;;
3267;SDS011;1646;52.450;13.326;2023-08-06T11:50:56;15.57;;;12.00;;
3267;SDS011;1646;52.450;13.326;2023-08-06T11:55:56;12.50;;;11.20;;
3267;SDS011;1646;52.450;13.326;2023-08-06T12:00:56;13.10;;;11.67;;
3267;SDS011;1646;52.450;13.326;2023-08-06T12:05:55;15.70;;;12.83;;
3267;SDS011;1646;52.450;13.326;2023-08-06T12:10:53;18.10;;;13.27;;
3267;SDS011;1646;52.450;13.326;2023-08-06T12:15:53;10.63;;;9.60;;
3267;SDS011;1646;52.450;13.326;2023-08-06T12:20:53;17.03;;;14.30;;
3267;SDS011;1646;52.450;13.326;2023-08-06T12:25:52;14.53;;;12.27;;
3267;SDS011;1646;52.450;13.326;2023-08-06T12:30:50;12.27;;;9.37;;
3267;SDS011;1646;52.450;13.326;2023-08-06T12:35:53;11.70;;;8.93;;
3267;SDS011;1646;52.450;13.326;2023-08-06T12:40:51;11.90;;;10.13;;
3267;SDS011;1646;52.450;13.326;2023-08-06T12:45:50;6.80;;;6.10;;
3267;SDS011;1646;52.450;13.326;2023-08-06T12:50:48;7.40;;;6.63;;
3267;SDS011;1646;52.450;13.326;2023-08-06T12:55:48;7.83;;;6.57;;
3267;SDS011;1646;52.450;13.326;2023-08-06T13:00:47;8.90;;;8.00;;
3267;SDS011;1646;52.450;13.326;2023-08-06T13:05:45;7.07;;;6.40;;
3267;SDS011;1646;52.450;13.326;2023-08-06T13:11:02;8.80;;;5.10;;
3267;SDS011;1646;52.450;13.326;2023-08-06T13:16:02;6.00;;;4.37;;
3267;SDS011;1646;52.450;13.326;2023-08-06T13:21:03;4.83;;;4.43;;
3267;SDS011;1646;52.450;13.326;2023-08-06T13:26:03;4.40;;;4.10;;
3267;SDS011;1646;52.450;13.326;2023-08-06T13:31:01;6.03;;;5.43;;
3267;SDS011;1646;52.450;13.326;2023-08-06T13:36:00;5.00;;;4.50;;
3267;SDS011;1646;52.450;13.326;2023-08-06T13:40:58;7.03;;;5.40;;
3267;SDS011;1646;52.450;13.326;2023-08-06T13:45:58;5.87;;;5.30;;
3267;SDS011;1646;52.450;13.326;2023-08-06T13:50:56;7.60;;;6.50;;
3267;SDS011;1646;52.450;13.326;2023-08-06T13:55:55;6.07;;;5.50;;
3267;SDS011;1646;52.450;13.326;2023-08-06T14:00:54;7.53;;;6.27;;
3267;SDS011;1646;52.450;13.326;2023-08-06T14:05:55;7.80;;;7.00;;
3267;SDS011;1646;52.450;13.326;2023-08-06T14:10:54;8.20;;;7.40;;
3267;SDS011;1646;52.450;13.326;2023-08-06T14:15:52;8.60;;;7.70;;
3267;SDS011;1646;52.450;13.326;2023-08-06T14:20:50;9.90;;;8.90;;
3267;SDS011;1646;52.450;13.326;2023-08-06T14:25:51;11.77;;;9.23;;
3267;SDS011;1646;52.450;13.326;2023-08-06T14:30:49;9.83;;;8.93;;
3267;SDS011;1646;52.450;13.326;2023-08-06T14:35:47;12.87;;;10.07;;
3267;SDS011;1646;52.450;13.326;2023-08-06T14:40:47;16.80;;;11.47;;
3267;SDS011;1646;52.450;13.326;2023-08-06T14:45:47;13.77;;;8.73;;
3267;SDS011;1646;52.450;13.326;2023-08-06T14:50:45;12.10;;;9.00;;
3267;SDS011;1646;52.450;13.326;2023-08-06T14:55:43;9.60;;;6.80;;
3267;SDS011;1646;52.450;13.326;2023-08-06T15:00:42;9.83;;;6.70;;
3267;SDS011;1646;52.450;13.326;2023-08-06T15:05:44;6.90;;;6.40;;
3267;SDS011;1646;52.450;13.326;2023-08-06T15:10:49;5.50;;;5.00;;
3267;SDS011;1646;52.450;13.326;2023-08-06T15:15:48;5.67;;;5.10;;
3267;SDS011;1646;52.450;13.326;2023-08-06T15:20:48;5.07;;;4.63;;
3267;SDS011;1646;52.450;13.326;2023-08-06T15:25:46;5.53;;;5.03;;
3267;SDS011;1646;52.450;13.326;2023-08-06T15:30:45;7.87;;;5.60;;
3267;SDS011;1646;52.450;13.326;2023-08-06T15:35:48;7.67;;;6.03;;
3267;SDS011;1646;52.450;13.326;2023-08-06T15:40:46;7.03;;;5.30;;
3267;SDS011;1646;52.450;13.326;2023-08-06T15:45:45;7.20;;;5.10;;
3267;SDS011;1646;52.450;13.326;2023-08-06T15:50:43;5.70;;;4.70;;
3267;SDS011;1646;52.450;13.326;2023-08-06T15:55:43;5.40;;;4.63;;
3267;SDS011;1646;52.450;13.326;2023-08-06T16:00:43;7.80;;;5.20;;
3267;SDS011;1646;52.450;13.326;2023-08-06T16:05:42;6.63;;;4.53;;
3267;SDS011;1646;52.450;13.326;2023-08-06T16:16:04;4.57;;;3.43;;
3267;SDS011;1646;52.450;13.326;2023-08-06T16:21:02;4.10;;;3.70;;
3267;SDS011;1646;52.450;13.326;2023-08-06T16:26:00;7.43;;;4.57;;
3267;SDS011;1646;52.450;13.326;2023-08-06T16:31:00;6.90;;;5.20;;
3267;SDS011;1646;52.450;13.326;2023-08-06T16:35:59;15.20;;;6.83;;
3267;SDS011;1646;52.450;13.326;2023-08-06T16:40:57;6.10;;;5.50;;
3267;SDS011;1646;52.450;13.326;2023-08-06T16:45:56;9.93;;;7.50;;
3267;SDS011;1646;52.450;13.326;2023-08-06T16:51:14;8.07;;;6.37;;
3267;SDS011;1646;52.450;13.326;2023-08-06T16:56:13;10.73;;;6.30;;
3267;SDS011;1646;52.450;13.326;2023-08-06T17:01:11;11.40;;;5.90;;
3267;SDS011;1646;52.450;13.326;2023-08-06T17:06:11;3.90;;;3.33;;
3267;SDS011;1646;52.450;13.326;2023-08-06T17:11:13;4.57;;;4.13;;
3267;SDS011;1646;52.450;13.326;2023-08-06T17:16:12;4.33;;;4.03;;
3267;SDS011;1646;52.450;13.326;2023-08-06T17:21:11;6.73;;;4.97;;
3267;SDS011;1646;52.450;13.326;2023-08-06T17:26:09;5.90;;;4.50;;
3267;SDS011;1646;52.450;13.326;2023-08-06T17:31:09;10.03;;;5.47;;
3267;SDS011;1646;52.450;13.326;2023-08-06T17:36:08;6.17;;;4.27;;
3267;SDS011;1646;52.450;13.326;2023-08-06T17:41:07;4.90;;;4.13;;
3267;SDS011;1646;52.450;13.326;2023-08-06T17:46:05;7.00;;;4.60;;
3267;SDS011;1646;52.450;13.326;2023-08-06T17:51:04;4.67;;;4.27;;
3267;SDS011;1646;52.450;13.326;2023-08-06T17:56:03;5.10;;;4.70;;
3267;SDS011;1646;52.450;13.326;2023-08-06T18:01:01;4.73;;;4.30;;
3267;SDS011;1646;52.450;13.326;2023-08-06T18:06:00;6.67;;;4.00;;
3267;SDS011;1646;52.450;13.326;2023-08-06T18:11:00;4.60;;;3.70;;
3267;SDS011;1646;52.450;13.326;2023-08-06T18:15:58;5.00;;;4.50;;
3267;SDS011;1646;52.450;13.326;2023-08-06T18:20:57;7.07;;;3.80;;
3267;SDS011;1646;52.450;13.326;2023-08-06T18:25:55;4.40;;;3.57;;
3267;SDS011;1646;52.450;13.326;2023-08-06T18:30:56;6.63;;;4.70;;
3267;SDS011;1646;52.450;13.326;2023-08-06T18:35:55;6.63;;;4.80;;
3267;SDS011;1646;52.450;13.326;2023-08-06T18:40:56;10.37;;;5.30;;
3267;SDS011;1646;52.450;13.326;2023-08-06T18:45:57;6.97;;;4.90;;
3267;SDS011;1646;52.450;13.326;2023-08-06T18:50:55;6.83;;;4.93;;
3267;SDS011;1646;52.450;13.326;2023-08-06T18:55:54;9.50;;;4.60;;
3267;SDS011;1646;52.450;13.326;2023-08-06T19:00:56;8.60;;;5.70;;
3267;SDS011;1646;52.450;13.326;2023-08-06T19:05:57;7.87;;;4.70;;
3267;SDS011;1646;52.450;13.326;2023-08-06T19:10:57;5.80;;;5.30;;
3267;SDS011;1646;52.450;13.326;2023-08-06T19:15:57;8.10;;;5.77;;
3267;SDS011;1646;52.450;13.326;2023-08-06T19:20:55;9.20;;;5.77;;
3267;SDS011;1646;52.450;13.326;2023-08-06T19:25:54;9.13;;;6.47;;
3267;SDS011;1646;52.450;13.326;2023-08-06T19:30:53;7.83;;;5.70;;
3267;SDS011;1646;52.450;13.326;2023-08-06T19:35:53;9.70;;;5.50;;
3267;SDS011;1646;52.450;13.326;2023-08-06T19:41:01;8.50;;;6.33;;
3267;SDS011;1646;52.450;13.326;2023-08-06T19:46:00;8.33;;;5.90;;
3267;SDS011;1646;52.450;13.326;2023-08-06T19:51:01;7.23;;;6.10;;
3267;SDS011;1646;52.450;13.326;2023-08-06T19:56:00;7.90;;;6.30;;
3267;SDS011;1646;52.450;13.326;2023-08-06T20:01:00;7.63;;;6.73;;
3267;SDS011;1646;52.450;13.326;2023-08-06T20:06:03;7.97;;;6.87;;
3267;SDS011;1646;52.450;13.326;2023-08-06T20:11:21;9.77;;;7.07;;
3267;SDS011;1646;52.450;13.326;2023-08-06T20:16:20;7.17;;;5.57;;
3267;SDS011;1646;52.450;13.326;2023-08-06T20:21:19;6.67;;;5.97;;
3267;SDS011;1646;52.450;13.326;2023-08-06T20:26:18;7.03;;;6.33;;
3267;SDS011;1646;52.450;13.326;2023-08-06T20:31:16;12.07;;;5.50;;
3267;SDS011;1646;52.450;13.326;2023-08-06T20:36:14;7.83;;;5.70;;
3267;SDS011;1646;52.450;13.326;2023-08-06T20:41:14;6.80;;;6.10;;
3267;SDS011;1646;52.450;13.326;2023-08-06T20:46:12;5.77;;;5.27;;
3267;SDS011;1646;52.450;13.326;2023-08-06T20:51:11;5.47;;;4.93;;
3267;SDS011;1646;52.450;13.326;2023-08-06T20:56:10;6.07;;;4.93;;
3267;SDS011;1646;52.450;13.326;2023-08-06T21:01:10;3.97;;;3.30;;
3267;SDS011;1646;52.450;13.326;2023-08-06T21:06:08;4.50;;;3.60;;
3267;SDS011;1646;52.450;13.326;2023-08-06T21:11:06;3.30;;;3.00;;
3267;SDS011;1646;52.450;13.326;2023-08-06T21:16:06;3.60;;;3.10;;
3267;SDS011;1646;52.450;13.326;2023-08-06T21:21:06;4.43;;;3.60;;
3267;SDS011;1646;52.450;13.326;2023-08-06T21:32:49;3.87;;;3.50;;
3267;SDS011;1646;52.450;13.326;2023-08-06T21:37:49;3.47;;;2.77;;
3267;SDS011;1646;52.450;13.326;2023-08-06T21:42:47;6.17;;;3.10;;
3267;SDS011;1646;52.450;13.326;2023-08-06T21:47:45;6.30;;;3.80;;
3267;SDS011;1646;52.450;13.326;2023-08-06T21:52:43;4.67;;;4.00;;
3267;SDS011;1646;52.450;13.326;2023-08-06T21:57:43;4.20;;;3.47;;
3267;SDS011;1646;52.450;13.326;2023-08-06T22:02:41;6.73;;;3.63;;
3267;SDS011;1646;52.450;13.326;2023-08-06T22:07:39;3.73;;;3.40;;
3267;SDS011;1646;52.450;13.326;2023-08-06T22:12:37;5.67;;;3.40;;
3267;SDS011;1646;52.450;13.326;2023-08-06T22:17:37;3.93;;;2.90;;
3267;SDS011;1646;52.450;13.326;2023-08-06T22:22:35;4.97;;;3.20;;
3267;SDS011;1646;52.450;13.326;2023-08-06T22:27:34;3.30;;;3.10;;
3267;SDS011;1646;52.450;13.326;2023-08-06T22:32:32;4.00;;;3.03;;
3267;SDS011;1646;52.450;13.326;2023-08-06T22:37:31;4.00;;;2.93;;
3267;SDS011;1646;52.450;13.326;2023-08-06T22:42:29;3.70;;;3.40;;
3267;SDS011;1646;52.450;13.326;2023-08-06T22:47:31;4.03;;;3.30;;
3267;SDS011;1646;52.450;13.326;2023-08-06T22:52:29;2.93;;;2.73;;
3267;SDS011;1646;52.450;13.326;2023-08-06T22:57:29;4.10;;;3.03;;
3267;SDS011;1646;52.450;13.326;2023-08-06T23:02:27;6.60;;;3.70;;
3267;SDS011;1646;52.450;13.326;2023-08-06T23:07:26;2.87;;;2.60;;
3267;SDS011;1646;52.450;13.326;2023-08-06T23:12:25;3.80;;;3.50;;
3267;SDS011;1646;52.450;13.326;2023-08-06T23:17:23;6.40;;;2.60;;
3267;SDS011;1646;52.450;13.326;2023-08-06T23:22:22;3.13;;;2.73;;
3267;SDS011;1646;52.450;13.326;2023-08-06T23:27:20;4.67;;;2.77;;
3267;SDS011;1646;52.450;13.326;2023-08-06T23:32:19;3.17;;;2.80;;
3267;SDS011;1646;52.450;13.326;2023-08-06T23:37:18;2.70;;;2.50;;
3267;SDS011;1646;52.450;13.326;2023-08-06T23:42:16;3.10;;;2.90;;
3267;SDS011;1646;52.450;13.326;2023-08-06T23:47:14;4.07;;;2.43;;
3267;SDS011;1646;52.450;13.326;2023-08-06T23:52:13;2.60;;;2.40;;
3267;SDS011;1646;52.450;13.326;2023-08-06T23:57:11;4.43;;;3.10;;
